Calumet City, Illinois
Current Conditions -  °F | °C
As of 5:45 PM on Thursday 18 Dec 2014 (Local Time) from KGYY Reporting Station
Overcast Overcast  
Wind Chill: 28°   Ceiling: 2900
Heat Index: 28°   Visibility: 10mi
Dew Point: 18°   Wind: 0mph
Humidity: 64%   Direction: NA
Pressure: 30.25"   Gusts: NA
Location:  41.62°N, 87.53°W
Report Text: KGYY 182345Z 00000KT 10SM OVC029 M02/M08 A3025
Loading
Personal Weather Stations






























Interactive Weather Map New forecast layout! Learn more

10-Day Weather Forecast

Advertisements
Track Severe Weather on mobile